METAR / TAF

Die METAR- und TAF-Liste ist aus technischen Gründen (Verfügbarkeit, Update-Zyklen) nicht für ein Meteo-Briefing gedacht. Benutzen Sie stattdessen skybriefing der Skyguide  oder das TAMSI (MeteoSchweiz-eigene Meteo Selfbriefing-Plattform für Firmen aus der Aviatik; Anfragen über das

Kontaktformular

METAR Schweiz

METAR     LSZH 160520Z 14002KT 7000 MIFG NSC M05/M05 Q1018 BECMG
               3000 BCFG=
METAR     LSZH 160550Z 18001KT 7000 MIFG NSC M04/M05 Q1018 BECMG
               3000 BCFG=
METAR     LSGG 160520Z 27002KT 9000 FEW009 M04/M06 Q1019 NOSIG=
METAR     LSGG 160550Z VRB01KT 9000 FEW009 M04/M05 Q1019 NOSIG=
METAR     LFSB 160530Z 18005KT CAVOK M01/M02 Q1017 NOSIG=
METAR     LSZB 160520Z AUTO 16003KT 9999 NSC M06/M06 Q1018=
METAR     LSZB 160550Z 09005KT 070V130 CAVOK M05/M06 Q1018 NOSIG=
METAR     LSZA 160520Z VRB01KT CAVOK M02/M05 Q1020 NOSIG=
METAR     LSZA 160550Z 35002KT CAVOK M03/M06 Q1020 NOSIG=
METAR     LSZG 160520Z AUTO 23004KT 5000 NCD M03/M03 Q1018=
METAR     LSZG 160550Z AUTO 27002KT 5000 OVC004 M03/M03 Q1018=
METAR     LSZR 160520Z 09002KT CAVOK M02/M03 Q1018 NOSIG RMK A=
METAR     LSZR 160550Z 09002KT CAVOK M02/M03 Q1018 NOSIG RMK A=
METAR     LSGS 160520Z AUTO 08006KT CAVOK M02/M05 Q1020=
METAR     LSGS 160550Z 08006KT CAVOK M02/M05 Q1020=
METAR     LSGC 160520Z AUTO 24002KT CAVOK M07/M07 Q1015=
METAR     LSGC 160550Z AUTO 25003KT CAVOK M06/M06 Q1015=
METAR     LSZC 160520Z AUTO 25004KT CAVOK M03/M04 Q1018=
METAR     LSZC 160550Z AUTO 27005KT 220V290 CAVOK M02/M04 Q1018=
METAR RRA LSZL 160520Z AUTO VRB01KT 9999NDV NCD M03/M05 Q1020 RMK=
METAR     LSZL 160550Z 06001KT CAVOK M03/M05 Q1020 RMK BLU=
METAR     LSZS 160520Z AUTO VRB01KT CAVOK M16/M17 Q1017=
METAR     LSZS 160550Z AUTO VRB02KT CAVOK M18/M20 Q1017=
METAR RRA LSMA 160520Z AUTO 20003KT 9999NDV NCD M04/M04 Q1018 RMK=
METAR     LSMA 160550Z NIL=
METAR RRA LSMD 160520Z AUTO 00000KT 6000NDV BR NCD M04/M04 Q1018
               RMK=
METAR     LSMD 160550Z NIL=
METAR RRA LSME 160520Z AUTO 00000KT 5000NDV BR NCD M04/M05 Q1018
               RMK=
METAR     LSME 160550Z 00000KT 7000 NSC M04/M04 Q1018 RMK WHT=
METAR RRA LSMM 160520Z AUTO 00000KT 0600NDV R10/0550V0800U
               R28/0750VP2000D BCFG NCD M08/M09 Q1018 RMK=
METAR     LSMM 160550Z 00000KT 0450 R10/0600N R28/0500V0750N FZFG
               NSC M09/M10 Q1018 RMK RED=
METAR     LSMP 160520Z VRB01KT 8000 NSC M04/M04 Q1019 RMK BLU=
METAR     LSMP 160550Z 19002KT 8000 NSC M04/M05 Q1018 RMK BLU=
METAR     LSMS 160520Z AUTO 08006KT CAVOK M02/M05 Q1020=
METAR     LSMS 160550Z 08006KT CAVOK M02/M05 Q1020 RMK BLU+=
Aktualisiert am Mittwoch, 16. Januar 2019, 07:02 Uhr

TAF Schweiz

TAF     LSZH 160225Z 1603/1709 VRB03KT 4000 MIFG NSC TX06/1614Z
             TNM03/1606Z TNM01/1706Z PROB40 TEMPO 1603/1609 1500
             BCFG PROB30 TEMPO 1603/1609 0300 FZFG VV001 BECMG
             1609/1611 CAVOK TEMPO 1700/1706 4500 MIFG PROB30
             TEMPO 1700/1706 2500 BCFG=
TAF     LSGG 160225Z 1603/1709 VRB03KT 8000 NSC TX06/1615Z
             TNM03/1606Z TN01/1706Z TEMPO 1603/1609 3000 BCFG
             PROB40 TEMPO 1604/1609 0500 FZFG VV002 BECMG
             1609/1612 23010KT CAVOK BECMG 1702/1705 9999 BKN030=
TAF     LFSB 152300Z 1600/1624 17004KT 9999 FEW030 SCT040=
TAF     LSZL 160225Z 1603/1612 VRB05KT CAVOK=
TAF     LSMA 151625Z 1517/1623 VRB02KT 9999 FEW020 BECMG 1517/1519
             CAVOK PROB40 1523/1608 4500 BR PROB30 1601/1608 2500
             BCFG=
TAF     LSMD 151625Z 1517/1623 VRB03KT 9999 FEW030 BECMG 1517/1520
             CAVOK BECMG 1521/1524 4500 MIFG NSC PROB40 1524/1608
             1500 BCFG PROB30 1524/1608 0300 FZFG VV001 BECMG
             1608/1611 CAVOK=
TAF     LSME 151625Z 1517/1623 VRB03KT CAVOK PROB40 1523/1608 4500
             MIFG NSC PROB30 1601/1608 1500 BCFG=
TAF AAA LSMM 160207Z 1602/1623 VRB02KT 9999 FEW035 BECMG 1517/1519
             CAVOK PROB40 1523/1608 4500 BR PROB30 1601/1607 0300
             FZFG=
TAF     LSMM 151625Z 1517/1623 VRB02KT 9999 FEW035 BECMG 1517/1519
             CAVOK PROB30 1523/1608 4500 BR=
TAF     LSMP 151625Z 1517/1623 VRB03KT CAVOK BECMG 1600/1603 4500
             MIFG PROB40 TEMPO 1603/1609 0500 FZFG VV002 BECMG
             1609/1611 CAVOK=
Aktualisiert am Mittwoch, 16. Januar 2019, 05:02 Uhr